createdAt,value
2022-12-25T00:00:01.115Z,19.50
2022-12-25T00:02:30.439Z,19.30
2022-12-25T00:04:58.580Z,19.60
2022-12-25T00:07:26.622Z,19.40
2022-12-25T00:09:54.603Z,19.20
2022-12-25T00:12:24.080Z,19.20
2022-12-25T00:14:52.158Z,19.30
2022-12-25T00:17:20.189Z,19.20
2022-12-25T00:19:48.175Z,19.60
2022-12-25T00:22:16.459Z,19.00
2022-12-25T00:24:44.467Z,19.10
2022-12-25T00:27:12.507Z,19.30
2022-12-25T00:29:41.855Z,19.50
2022-12-25T00:32:10.641Z,19.20
2022-12-25T00:34:38.648Z,19.20
2022-12-25T00:37:06.643Z,19.20
2022-12-25T00:39:34.687Z,19.50
2022-12-25T00:42:20.814Z,19.20
2022-12-25T00:44:51.376Z,19.60
2022-12-25T00:47:19.613Z,19.20
2022-12-25T00:49:47.679Z,19.10
2022-12-25T00:52:16.180Z,19.40
2022-12-25T00:54:44.192Z,19.50
2022-12-25T00:57:12.202Z,19.30
2022-12-25T00:59:40.330Z,19.30
2022-12-25T01:02:25.274Z,19.20
2022-12-25T01:04:56.179Z,19.40
2022-12-25T01:07:26.585Z,19.30
2022-12-25T01:10:12.289Z,19.30
2022-12-25T01:12:43.133Z,18.90
2022-12-25T01:15:13.277Z,19.20
2022-12-25T01:17:43.281Z,19.20
2022-12-25T01:20:13.455Z,19.50
2022-12-25T01:22:41.833Z,19.20
2022-12-25T01:25:11.968Z,19.50
2022-12-25T01:27:41.710Z,19.60
2022-12-25T01:30:11.889Z,19.30
2022-12-25T01:32:39.920Z,19.30
2022-12-25T01:35:10.170Z,19.10
2022-12-25T01:37:38.203Z,19.30
2022-12-25T01:40:09.316Z,19.30
2022-12-25T01:42:37.620Z,19.40
2022-12-25T01:45:39.402Z,19.10
2022-12-25T01:48:17.750Z,18.90
2022-12-25T01:50:51.038Z,19.00
2022-12-25T01:53:19.262Z,19.20
2022-12-25T01:55:52.984Z,18.90
2022-12-25T01:58:21.225Z,19.10
2022-12-25T02:00:49.513Z,19.30
2022-12-25T02:03:18.023Z,19.20
2022-12-25T02:05:48.151Z,19.40
2022-12-25T02:08:18.643Z,19.30
2022-12-25T02:10:47.311Z,19.50
2022-12-25T02:13:19.836Z,18.90
2022-12-25T02:15:58.816Z,19.50
2022-12-25T02:18:37.760Z,19.00
2022-12-25T02:21:40.000Z,19.30
2022-12-25T02:24:25.015Z,19.20
2022-12-25T02:27:05.921Z,18.90
2022-12-25T02:29:43.573Z,19.30
2022-12-25T02:32:21.710Z,19.30
2022-12-25T02:34:54.400Z,19.20
2022-12-25T02:37:28.512Z,19.20
2022-12-25T02:40:02.333Z,19.30
2022-12-25T02:42:56.479Z,19.40
2022-12-25T02:45:52.881Z,19.30
2022-12-25T02:48:42.273Z,19.30
2022-12-25T02:51:33.184Z,19.10
2022-12-25T02:54:23.992Z,19.10
2022-12-25T02:57:11.182Z,19.30
2022-12-25T02:59:59.703Z,19.00
2022-12-25T03:02:49.695Z,19.00
2022-12-25T03:05:40.814Z,19.20
2022-12-25T03:08:13.562Z,19.30
2022-12-25T03:11:04.236Z,19.20
2022-12-25T03:13:39.001Z,19.50
2022-12-25T03:16:25.758Z,19.20
2022-12-25T03:18:58.313Z,19.30
2022-12-25T03:21:43.953Z,19.30
2022-12-25T03:24:37.831Z,19.10
2022-12-25T03:27:05.830Z,19.10
2022-12-25T03:29:52.846Z,19.00
2022-12-25T03:32:40.826Z,18.90
2022-12-25T03:35:24.260Z,18.80
2022-12-25T03:38:29.633Z,19.30
2022-12-25T03:41:33.570Z,19.10
2022-12-25T03:44:30.318Z,18.90
2022-12-25T03:47:23.572Z,19.20
2022-12-25T03:50:20.641Z,18.80
2022-12-25T03:53:10.070Z,19.20
2022-12-25T03:55:56.900Z,19.20
2022-12-25T03:58:45.144Z,19.40
2022-12-25T04:01:31.532Z,19.30
2022-12-25T04:04:17.526Z,19.10
2022-12-25T04:07:03.159Z,19.30
2022-12-25T04:09:50.330Z,19.30
2022-12-25T04:12:35.965Z,19.10
2022-12-25T04:15:21.392Z,19.40
2022-12-25T04:18:10.676Z,19.40
2022-12-25T04:20:56.649Z,19.20
2022-12-25T04:23:42.261Z,19.40
2022-12-25T04:26:28.928Z,19.40
2022-12-25T04:29:14.573Z,19.20
2022-12-25T04:32:00.255Z,18.80
2022-12-25T04:34:46.155Z,19.30
2022-12-25T04:37:14.217Z,19.40
2022-12-25T04:39:42.215Z,19.00
2022-12-25T04:42:11.593Z,19.30
2022-12-25T04:44:39.635Z,19.40
2022-12-25T04:47:11.467Z,19.00
2022-12-25T04:49:40.192Z,19.30
2022-12-25T04:52:08.349Z,19.20
2022-12-25T04:54:36.342Z,19.40
2022-12-25T04:57:04.676Z,19.20
2022-12-25T04:59:34.362Z,19.50
2022-12-25T05:02:02.713Z,19.30
2022-12-25T05:04:30.836Z,19.50
2022-12-25T05:06:58.909Z,19.40
2022-12-25T05:09:27.176Z,19.50
2022-12-25T05:11:55.140Z,19.50
2022-12-25T05:14:23.141Z,19.80
2022-12-25T05:16:52.682Z,19.50
2022-12-25T05:19:20.735Z,19.60
2022-12-25T05:21:48.686Z,19.60
2022-12-25T05:24:16.695Z,19.50
2022-12-25T05:26:44.734Z,19.60
2022-12-25T05:29:12.817Z,19.50
2022-12-25T05:31:40.905Z,19.70
2022-12-25T05:34:10.319Z,19.70
2022-12-25T05:36:40.051Z,19.90
2022-12-25T05:39:08.134Z,19.50
2022-12-25T05:41:36.210Z,19.40
2022-12-25T05:44:04.569Z,19.70
2022-12-25T05:46:32.654Z,19.70
2022-12-25T05:49:00.727Z,19.60
2022-12-25T05:51:30.740Z,19.90
2022-12-25T05:53:59.143Z,19.80
2022-12-25T05:56:27.514Z,19.60
2022-12-25T05:58:57.077Z,19.50
2022-12-25T06:01:29.090Z,19.60
2022-12-25T06:03:58.274Z,19.60
2022-12-25T06:06:26.475Z,19.70
2022-12-25T06:08:56.653Z,19.70
2022-12-25T06:11:24.775Z,19.80
2022-12-25T06:13:54.154Z,19.70
2022-12-25T06:16:22.501Z,19.70
2022-12-25T06:18:52.838Z,19.60
2022-12-25T06:21:20.950Z,19.60
2022-12-25T06:23:49.471Z,19.70
2022-12-25T06:26:20.904Z,19.80
2022-12-25T06:28:49.514Z,20.00
2022-12-25T06:31:21.115Z,19.80
2022-12-25T06:33:49.844Z,19.60
2022-12-25T06:36:20.577Z,19.60
2022-12-25T06:38:49.292Z,19.40
2022-12-25T06:41:20.748Z,19.80
2022-12-25T06:43:49.656Z,19.60
2022-12-25T06:46:17.810Z,19.60
2022-12-25T06:48:49.290Z,19.70
2022-12-25T06:51:18.354Z,19.80
2022-12-25T06:53:46.568Z,19.60
2022-12-25T06:56:18.806Z,19.60
2022-12-25T06:58:49.674Z,19.90
2022-12-25T07:01:22.488Z,19.60
2022-12-25T07:03:54.575Z,19.50
2022-12-25T07:06:23.061Z,19.80
2022-12-25T07:08:51.510Z,19.50
2022-12-25T07:11:22.050Z,19.90
2022-12-25T07:13:50.107Z,20.00
2022-12-25T07:16:18.657Z,19.50
2022-12-25T07:18:46.782Z,19.50
2022-12-25T07:21:17.601Z,19.60
2022-12-25T07:23:47.315Z,19.70
2022-12-25T07:26:17.248Z,19.80
2022-12-25T07:28:46.614Z,19.70
2022-12-25T07:31:17.522Z,19.70
2022-12-25T07:33:46.439Z,19.50
2022-12-25T07:36:15.656Z,19.70
2022-12-25T07:38:43.783Z,19.80
2022-12-25T07:41:13.303Z,19.50
2022-12-25T07:43:42.132Z,19.50
2022-12-25T07:46:12.132Z,20.00
2022-12-25T07:48:40.239Z,19.70
2022-12-25T07:51:13.793Z,19.70
2022-12-25T07:53:42.077Z,19.60
2022-12-25T07:56:14.351Z,19.60
2022-12-25T07:58:43.385Z,19.50
2022-12-25T08:01:17.667Z,19.70
2022-12-25T08:03:50.589Z,19.70
2022-12-25T08:06:19.418Z,19.70
2022-12-25T08:08:47.639Z,19.70
2022-12-25T08:11:15.874Z,19.70
2022-12-25T08:13:43.949Z,19.70
2022-12-25T08:16:13.470Z,19.80
2022-12-25T08:18:42.968Z,19.80
2022-12-25T08:21:13.679Z,19.90
2022-12-25T08:23:44.124Z,19.80
2022-12-25T08:26:15.617Z,19.90
2022-12-25T08:28:43.748Z,19.70
2022-12-25T08:31:18.666Z,19.90
2022-12-25T08:33:48.346Z,19.70
2022-12-25T08:36:17.345Z,19.60
2022-12-25T08:38:46.089Z,19.70
2022-12-25T08:41:15.234Z,19.50
2022-12-25T08:43:43.698Z,19.80
2022-12-25T08:46:12.157Z,19.80
2022-12-25T08:48:43.734Z,19.80
2022-12-25T08:51:15.489Z,19.70
2022-12-25T08:53:43.721Z,19.60
2022-12-25T08:56:12.613Z,19.70
2022-12-25T08:58:41.251Z,19.80
2022-12-25T09:01:09.969Z,19.80
2022-12-25T09:03:38.231Z,19.60
2022-12-25T09:06:10.989Z,19.80
2022-12-25T09:08:45.906Z,19.70
2022-12-25T09:11:17.383Z,19.80
2022-12-25T09:13:45.469Z,19.60
2022-12-25T09:16:17.209Z,19.50
2022-12-25T09:18:45.527Z,19.70
2022-12-25T09:21:17.544Z,19.60
2022-12-25T09:23:46.337Z,19.80
2022-12-25T09:26:16.461Z,19.60
2022-12-25T09:28:51.230Z,19.80
2022-12-25T09:31:21.093Z,19.60
2022-12-25T09:33:49.575Z,19.60
2022-12-25T09:36:21.191Z,19.50
2022-12-25T09:38:49.499Z,19.80
2022-12-25T09:41:22.290Z,19.60
2022-12-25T09:43:58.125Z,19.70
2022-12-25T09:46:36.632Z,19.70
2022-12-25T09:49:15.140Z,19.60
2022-12-25T09:51:46.888Z,19.80
2022-12-25T09:54:22.357Z,19.50
2022-12-25T09:56:50.357Z,19.60
2022-12-25T09:59:25.428Z,19.60
2022-12-25T10:02:33.420Z,19.70
2022-12-25T10:05:20.672Z,19.40
2022-12-25T10:08:02.930Z,19.60
2022-12-25T10:10:49.985Z,19.60
2022-12-25T10:13:49.874Z,19.70
2022-12-25T10:16:30.846Z,19.70
2022-12-25T10:19:13.717Z,19.70
2022-12-25T10:21:42.751Z,19.90
2022-12-25T10:24:31.551Z,19.70
2022-12-25T10:27:02.685Z,19.60
2022-12-25T10:29:33.471Z,19.60
2022-12-25T10:32:01.526Z,19.60
2022-12-25T10:34:29.623Z,19.60
2022-12-25T10:36:57.939Z,19.80
2022-12-25T10:39:27.760Z,19.40
2022-12-25T10:42:16.940Z,19.60
2022-12-25T10:44:57.523Z,19.80
2022-12-25T10:47:29.166Z,19.60
2022-12-25T10:49:58.646Z,19.60
2022-12-25T10:52:29.375Z,19.60
2022-12-25T10:54:58.681Z,19.80
2022-12-25T10:57:27.925Z,19.40
2022-12-25T10:59:57.582Z,19.80
2022-12-25T11:02:28.778Z,19.90
2022-12-25T11:05:03.731Z,19.60
2022-12-25T11:07:33.560Z,19.70
2022-12-25T11:10:06.301Z,19.70
2022-12-25T11:12:38.423Z,19.60
2022-12-25T11:15:35.116Z,19.80
2022-12-25T11:18:04.154Z,19.70
2022-12-25T11:20:33.126Z,19.60
2022-12-25T11:23:01.089Z,19.50
2022-12-25T11:25:29.745Z,19.70
2022-12-25T11:28:00.470Z,19.60
2022-12-25T11:30:30.274Z,19.70
2022-12-25T11:33:03.798Z,19.80
2022-12-25T11:35:47.620Z,19.70
2022-12-25T11:38:15.665Z,19.70
2022-12-25T11:40:48.900Z,19.70
2022-12-25T11:43:23.131Z,19.70
2022-12-25T11:45:55.455Z,19.90
2022-12-25T11:48:28.959Z,19.70
2022-12-25T11:51:01.143Z,19.60
2022-12-25T11:53:38.300Z,19.60
2022-12-25T11:56:10.850Z,19.90
2022-12-25T11:58:43.172Z,19.70
2022-12-25T12:01:22.395Z,19.70
2022-12-25T12:03:51.805Z,20.10
2022-12-25T12:06:29.264Z,19.60
2022-12-25T12:09:03.322Z,19.60
2022-12-25T12:11:37.532Z,19.70
2022-12-25T12:14:23.458Z,20.00
2022-12-25T12:16:51.733Z,20.00
2022-12-25T12:19:29.441Z,19.70
2022-12-25T12:22:00.797Z,19.60
2022-12-25T12:24:35.045Z,19.70
2022-12-25T12:27:06.137Z,20.00
2022-12-25T12:29:44.200Z,20.00
2022-12-25T12:32:38.876Z,19.70
2022-12-25T12:35:16.477Z,19.80
2022-12-25T12:37:47.872Z,20.00
2022-12-25T12:40:28.460Z,19.60
2022-12-25T12:42:56.485Z,19.70
2022-12-25T12:45:29.427Z,19.70
2022-12-25T12:47:58.252Z,19.70
2022-12-25T12:50:40.852Z,19.90
2022-12-25T12:53:28.423Z,19.60
2022-12-25T12:55:57.104Z,19.60
2022-12-25T12:58:33.494Z,19.40
2022-12-25T13:01:15.015Z,20.00
2022-12-25T13:04:26.197Z,19.70
2022-12-25T13:07:05.367Z,19.60
2022-12-25T13:09:50.351Z,19.60
2022-12-25T13:12:18.955Z,19.70
2022-12-25T13:14:48.535Z,19.70
2022-12-25T13:17:21.869Z,19.90
2022-12-25T13:19:54.978Z,19.70
2022-12-25T13:22:30.466Z,19.80
2022-12-25T13:25:01.101Z,19.90
2022-12-25T13:27:31.837Z,19.80
2022-12-25T13:30:00.659Z,19.80
2022-12-25T13:32:31.768Z,19.70
2022-12-25T13:35:01.190Z,19.80
2022-12-25T13:37:32.624Z,19.80
2022-12-25T13:40:02.970Z,20.00
2022-12-25T13:42:32.819Z,20.10
2022-12-25T13:45:05.957Z,19.90
2022-12-25T13:47:36.886Z,19.50
2022-12-25T13:50:20.710Z,20.00
2022-12-25T13:52:50.624Z,19.80
2022-12-25T13:55:21.616Z,19.70
2022-12-25T13:57:55.840Z,19.60
2022-12-25T14:00:30.032Z,19.70
2022-12-25T14:02:58.265Z,19.80
2022-12-25T14:05:34.730Z,19.70
2022-12-25T14:08:16.257Z,20.00
2022-12-25T14:10:47.348Z,20.10
2022-12-25T14:13:17.293Z,19.80
2022-12-25T14:15:47.857Z,19.70
2022-12-25T14:18:17.242Z,19.70
2022-12-25T14:20:59.062Z,20.10
2022-12-25T14:23:33.703Z,19.80
2022-12-25T14:26:01.765Z,20.10
2022-12-25T14:28:32.302Z,20.00
2022-12-25T14:31:01.418Z,19.70
2022-12-25T14:33:35.931Z,19.80
2022-12-25T14:36:04.597Z,19.80
2022-12-25T14:38:35.768Z,19.70
2022-12-25T14:41:07.628Z,19.80
2022-12-25T14:43:36.317Z,19.50
2022-12-25T14:46:07.173Z,19.70
2022-12-25T14:48:35.278Z,20.10
2022-12-25T14:51:06.012Z,20.00
2022-12-25T14:53:41.131Z,19.60
2022-12-25T14:56:10.488Z,19.70
2022-12-25T14:58:43.156Z,19.70
2022-12-25T15:01:23.940Z,20.00
2022-12-25T15:03:52.232Z,20.10
2022-12-25T15:06:24.766Z,19.80
2022-12-25T15:09:06.970Z,19.50
2022-12-25T15:11:34.962Z,19.60
2022-12-25T15:14:03.029Z,19.70
2022-12-25T15:16:35.854Z,19.60
2022-12-25T15:19:04.126Z,19.80
2022-12-25T15:21:35.614Z,19.90
2022-12-25T15:24:05.436Z,19.80
2022-12-25T15:26:33.752Z,19.60
2022-12-25T15:29:02.013Z,19.90
2022-12-25T15:31:32.669Z,19.50
2022-12-25T15:34:03.579Z,19.80
2022-12-25T15:36:31.937Z,19.70
2022-12-25T15:38:59.960Z,19.60
2022-12-25T15:41:50.541Z,19.70
2022-12-25T15:44:18.717Z,19.80
2022-12-25T15:46:47.432Z,19.80
2022-12-25T15:49:17.179Z,19.70
2022-12-25T15:51:46.039Z,20.10
2022-12-25T15:54:14.811Z,19.60
2022-12-25T15:56:47.907Z,19.70
2022-12-25T15:59:17.752Z,19.60
2022-12-25T16:01:49.792Z,19.80
2022-12-25T16:04:17.997Z,19.70
2022-12-25T16:06:46.348Z,19.70
2022-12-25T16:09:16.052Z,20.10
2022-12-25T16:11:45.490Z,19.80
2022-12-25T16:14:13.979Z,19.70
2022-12-25T16:16:42.467Z,19.90
2022-12-25T16:19:10.547Z,20.00
2022-12-25T16:21:41.961Z,19.80
2022-12-25T16:24:10.339Z,19.80
2022-12-25T16:26:38.302Z,19.60
2022-12-25T16:29:08.997Z,19.70
2022-12-25T16:31:38.166Z,19.90
2022-12-25T16:34:09.465Z,19.90
2022-12-25T16:36:38.941Z,19.60
2022-12-25T16:39:08.188Z,19.50
2022-12-25T16:41:36.463Z,19.80
2022-12-25T16:44:09.978Z,20.00
2022-12-25T16:46:38.731Z,19.60
2022-12-25T16:49:07.142Z,19.70
2022-12-25T16:51:35.262Z,19.80
2022-12-25T16:54:03.286Z,19.70
2022-12-25T16:56:32.295Z,20.00
2022-12-25T16:59:01.070Z,19.90
2022-12-25T17:01:30.808Z,19.80
2022-12-25T17:04:02.099Z,20.10
2022-12-25T17:06:30.618Z,19.90
2022-12-25T17:09:02.197Z,19.80
2022-12-25T17:11:30.728Z,19.80
2022-12-25T17:14:01.938Z,19.90
2022-12-25T17:16:33.856Z,20.20
2022-12-25T17:19:07.936Z,19.50
2022-12-25T17:21:38.101Z,20.00
2022-12-25T17:24:08.226Z,19.80
2022-12-25T17:26:36.352Z,19.70
2022-12-25T17:29:04.956Z,20.00
2022-12-25T17:31:34.712Z,19.90
2022-12-25T17:34:03.555Z,19.90
2022-12-25T17:36:32.406Z,19.90
2022-12-25T17:39:01.235Z,19.80
2022-12-25T17:41:29.612Z,19.70
2022-12-25T17:43:57.702Z,19.60
2022-12-25T17:46:28.604Z,20.00
2022-12-25T17:49:01.169Z,19.90
2022-12-25T17:51:31.923Z,19.80
2022-12-25T17:54:03.818Z,20.10
2022-12-25T17:56:33.375Z,19.90
2022-12-25T17:59:06.524Z,19.70
2022-12-25T18:01:35.720Z,20.10
2022-12-25T18:04:06.723Z,20.10
2022-12-25T18:06:37.175Z,19.70
2022-12-25T18:09:07.029Z,19.60
2022-12-25T18:11:36.741Z,19.70
2022-12-25T18:14:07.252Z,19.60
2022-12-25T18:16:38.645Z,19.90
2022-12-25T18:19:08.374Z,19.70
2022-12-25T18:21:37.107Z,19.70
2022-12-25T18:24:07.197Z,19.90
2022-12-25T18:26:35.759Z,19.80
2022-12-25T18:29:04.318Z,19.90
2022-12-25T18:31:33.790Z,19.90
2022-12-25T18:34:02.329Z,19.60
2022-12-25T18:36:32.470Z,19.60
2022-12-25T18:39:00.737Z,19.90
2022-12-25T18:41:30.116Z,19.50
2022-12-25T18:44:00.507Z,19.90
2022-12-25T18:46:28.980Z,20.00
2022-12-25T18:48:58.330Z,19.80
2022-12-25T18:51:34.744Z,20.00
2022-12-25T18:54:06.417Z,19.70
2022-12-25T18:56:34.622Z,19.70
2022-12-25T18:59:02.818Z,19.60
2022-12-25T19:01:31.138Z,19.80
2022-12-25T19:04:05.041Z,19.70
2022-12-25T19:06:34.422Z,19.70
2022-12-25T19:09:09.261Z,19.50
2022-12-25T19:11:45.961Z,19.80
2022-12-25T19:14:14.649Z,19.90
2022-12-25T19:16:42.769Z,19.90
2022-12-25T19:19:10.984Z,19.70
2022-12-25T19:21:39.107Z,20.00
2022-12-25T19:24:07.746Z,19.80
2022-12-25T19:26:37.601Z,19.90
2022-12-25T19:29:07.049Z,20.00
2022-12-25T19:31:36.966Z,19.60
2022-12-25T19:34:06.162Z,19.80
2022-12-25T19:36:34.160Z,19.70
2022-12-25T19:39:02.479Z,20.00
2022-12-25T19:41:30.641Z,19.60
2022-12-25T19:43:59.051Z,20.10
2022-12-25T19:46:31.833Z,19.80
2022-12-25T19:49:03.998Z,20.20
2022-12-25T19:51:34.337Z,19.70
2022-12-25T19:54:02.671Z,20.20
2022-12-25T19:56:31.348Z,19.80
2022-12-25T19:58:59.922Z,20.00
2022-12-25T20:01:30.664Z,19.80
2022-12-25T20:03:59.273Z,19.90
2022-12-25T20:06:30.672Z,20.10
2022-12-25T20:09:02.371Z,20.00
2022-12-25T20:11:33.978Z,20.20
2022-12-25T20:14:02.589Z,20.00
2022-12-25T20:16:32.076Z,19.80
2022-12-25T20:19:00.513Z,19.80
2022-12-25T20:21:29.803Z,20.10
2022-12-25T20:23:58.167Z,19.70
2022-12-25T20:26:29.277Z,19.80
2022-12-25T20:28:58.115Z,19.60
2022-12-25T20:31:28.404Z,19.80
2022-12-25T20:34:00.165Z,19.90
2022-12-25T20:36:36.149Z,20.20
2022-12-25T20:39:06.230Z,19.80
2022-12-25T20:41:34.283Z,19.50
2022-12-25T20:44:04.065Z,19.70
2022-12-25T20:46:32.235Z,19.70
2022-12-25T20:49:03.337Z,20.10
2022-12-25T20:51:31.362Z,19.90
2022-12-25T20:53:59.476Z,20.10
2022-12-25T20:56:29.921Z,20.10
2022-12-25T20:59:00.374Z,20.00
2022-12-25T21:01:30.620Z,19.80
2022-12-25T21:03:59.425Z,19.80
2022-12-25T21:06:28.917Z,20.10
2022-12-25T21:08:56.962Z,19.70
2022-12-25T21:11:25.039Z,20.20
2022-12-25T21:13:53.549Z,19.90
2022-12-25T21:16:23.414Z,19.90
2022-12-25T21:18:53.991Z,19.90
2022-12-25T21:21:23.254Z,19.70
2022-12-25T21:23:52.671Z,19.70
2022-12-25T21:26:27.485Z,19.60
2022-12-25T21:29:00.032Z,19.90
2022-12-25T21:31:28.746Z,20.00
2022-12-25T21:33:57.482Z,19.80
2022-12-25T21:36:28.222Z,19.70
2022-12-25T21:39:00.462Z,19.70
2022-12-25T21:41:30.882Z,20.00
2022-12-25T21:43:59.514Z,19.70
2022-12-25T21:46:29.198Z,19.80
2022-12-25T21:48:58.133Z,19.60
2022-12-25T21:52:01.364Z,19.80
2022-12-25T21:54:30.610Z,20.00
2022-12-25T21:56:58.637Z,20.00
2022-12-25T21:59:26.914Z,19.80
2022-12-25T22:01:55.139Z,19.60
2022-12-25T22:04:24.380Z,20.00
2022-12-25T22:07:10.680Z,19.60
2022-12-25T22:09:40.103Z,19.90
2022-12-25T22:12:33.503Z,19.80
2022-12-25T22:15:06.356Z,19.80
2022-12-25T22:17:55.419Z,19.90
2022-12-25T22:20:27.648Z,19.80
2022-12-25T22:22:55.859Z,19.50
2022-12-25T22:25:25.867Z,20.00
2022-12-25T22:27:54.640Z,20.20
2022-12-25T22:30:26.433Z,20.00
2022-12-25T22:32:54.926Z,19.80
2022-12-25T22:35:23.489Z,20.00
2022-12-25T22:37:53.342Z,19.60
2022-12-25T22:40:25.979Z,20.00
2022-12-25T22:42:54.966Z,19.80
2022-12-25T22:45:23.139Z,19.80
2022-12-25T22:47:51.147Z,19.70
2022-12-25T22:50:19.383Z,20.00
2022-12-25T22:52:47.431Z,19.70
2022-12-25T22:55:19.105Z,19.70
2022-12-25T22:57:48.882Z,19.80
2022-12-25T23:00:17.010Z,19.60
2022-12-25T23:02:45.442Z,19.80
2022-12-25T23:05:13.886Z,19.40
2022-12-25T23:07:41.993Z,19.70
2022-12-25T23:10:11.610Z,20.00
2022-12-25T23:12:57.385Z,19.60
2022-12-25T23:15:27.578Z,19.60
2022-12-25T23:18:13.110Z,19.60
2022-12-25T23:20:59.072Z,19.70
2022-12-25T23:23:44.791Z,19.60
2022-12-25T23:26:15.404Z,19.70
2022-12-25T23:29:02.259Z,19.40
2022-12-25T23:31:34.774Z,19.50
2022-12-25T23:34:03.312Z,19.50
2022-12-25T23:36:31.326Z,19.70
2022-12-25T23:39:06.671Z,19.30
2022-12-25T23:41:37.444Z,19.50
2022-12-25T23:44:05.578Z,19.70
2022-12-25T23:46:35.034Z,19.70
2022-12-25T23:49:03.541Z,19.40
2022-12-25T23:51:31.629Z,19.50
2022-12-25T23:53:59.671Z,19.60
2022-12-25T23:56:27.740Z,19.70
2022-12-25T23:58:55.758Z,19.50
